Logan, New Jersey
Current Conditions -  °F | °C
As of 9:54 PM on Friday 21 Nov 2014 (Local Time) from KPHL Reporting Station
Clear Clear  
Wind Chill: 23°   Ceiling: Unl
Heat Index: 31°   Visibility: 10mi
Dew Point:   Wind: 9mph
Humidity: 40%   Direction: 290°WNW
Pressure: 30.54"   Gusts: NA
Location:  39.757°N, 75.3338°W
Report Text: KPHL 220254Z 29008KT 10SM CLR M01/M13 A3054 RMK AO2 SLP340 T10061128 51005 $
Loading
Personal Weather Stations






























Interactive Weather Map New forecast layout! Learn more

10-Day Weather Forecast

Advertisements
Track Severe Weather on mobile